Time;durP1;ratioP1;P1;durP2;ratioP2;P2;SDS_P1;SDS_P2;PMS_P1;PMS_P2;Temp;Humidity;BMP_temperature;BMP_pressure;BME280_temperature;BME280_humidity;BME280_pressure;Samples;Min_cycle;Max_cycle;Signal;HPM_P1;HPM_P2
2023/01/25 00:03:01;;;;;;;;;;;;;;;2.08;82.09;104016.94;20930512;28;19983;-57
2023/01/25 00:13:22;;;;;;;;;;;;;;;1.97;81.89;104003.59;20932827;28;19928;-58
2023/01/25 00:23:44;;;;;;;;;;;;;;;1.89;81.37;103993.72;20954996;28;19970;-57
2023/01/25 00:34:25;;;;;;;;;;;;;;;1.86;82.05;103978.25;20944645;28;19947;-57
2023/01/25 00:44:47;;;;;;;;;;;;;;;2.00;82.39;103972.22;20942964;28;19974;-58
2023/01/25 00:55:08;;;;;;;;;;;;;;;2.08;81.83;103977.75;20950939;28;19974;-56
2023/01/25 01:05:30;;;;;;;;;;;;;;;2.03;81.41;103964.75;20941642;28;20376;-58
2023/01/25 01:15:52;;;;;;;;;;;;;;;1.99;81.54;103950.94;20950849;28;19928;-56
2023/01/25 01:26:14;;;;;;;;;;;;;;;1.93;81.94;103965.03;20918096;28;19959;-58
2023/01/25 01:36:35;;;;;;;;;;;;;;;1.98;82.90;103954.28;20955731;28;20433;-57
2023/01/25 01:46:58;;;;;;;;;;;;;;;1.79;82.74;103945.53;20945735;28;19932;-56
2023/01/25 01:57:22;;;;;;;;;;;;;;;1.63;83.50;103927.59;20942930;28;20337;-58
2023/01/25 02:07:45;;;;;;;;;;;;;;;1.72;83.25;103923.00;20941668;28;20407;-56
2023/01/25 02:18:08;;;;;;;;;;;;;;;1.68;82.85;103924.50;20956062;28;19974;-57
2023/01/25 02:28:36;;;;;;;;;;;;;;;1.78;84.00;103911.44;20934839;28;19950;-58
2023/01/25 02:39:00;;;;;;;;;;;;;;;1.61;83.73;103876.44;20935468;28;19929;-57
2023/01/25 02:49:22;;;;;;;;;;;;;;;1.62;84.19;103859.47;20948719;28;20395;-56
2023/01/25 02:59:43;;;;;;;;;;;;;;;1.56;84.18;103860.03;20943384;28;19928;-57
2023/01/25 03:10:05;;;;;;;;;;;;;;;1.58;84.61;103860.09;20934339;28;20039;-57
2023/01/25 03:20:26;;;;;;;;;;;;;;;1.60;84.59;103855.97;20937875;28;20226;-58
2023/01/25 03:30:51;;;;;;;;;;;;;;;1.71;84.97;103849.78;20938669;28;19943;-56
2023/01/25 03:41:13;;;;;;;;;;;;;;;1.60;84.14;103831.34;20943340;28;19935;-57
2023/01/25 03:51:35;;;;;;;;;;;;;;;1.53;84.41;103828.34;20920093;28;20538;-56
2023/01/25 04:01:56;;;;;;;;;;;;;;;1.52;84.31;103830.03;20938180;28;20298;-58
2023/01/25 04:12:18;;;;;;;;;;;;;;;1.42;84.74;103826.88;20934783;28;19933;-57
2023/01/25 04:22:39;;;;;;;;;;;;;;;1.38;83.95;103818.19;20928383;28;19951;-57
2023/01/25 04:33:04;;;;;;;;;;;;;;;1.34;84.77;103811.16;20932079;28;19928;-56
2023/01/25 04:43:25;;;;;;;;;;;;;;;1.35;84.79;103791.63;20946934;28;19932;-59
2023/01/25 04:53:46;;;;;;;;;;;;;;;1.31;84.54;103782.06;20930167;28;19978;-56
2023/01/25 05:04:08;;;;;;;;;;;;;;;1.29;83.62;103776.88;20919111;28;19933;-56
2023/01/25 05:14:29;;;;;;;;;;;;;;;1.39;83.75;103775.72;20929440;28;20442;-58
2023/01/25 05:24:50;;;;;;;;;;;;;;;1.47;83.27;103779.53;20939585;28;20410;-57
2023/01/25 05:35:12;;;;;;;;;;;;;;;1.44;83.75;103776.84;20963951;28;20372;-57
2023/01/25 05:45:33;;;;;;;;;;;;;;;1.34;83.50;103772.06;20936545;28;19951;-57
2023/01/25 05:55:54;;;;;;;;;;;;;;;1.38;84.38;103761.19;20960981;28;19978;-57
2023/01/25 06:06:16;;;;;;;;;;;;;;;1.27;83.84;103752.97;20952681;28;19928;-58
2023/01/25 06:16:38;;;;;;;;;;;;;;;1.19;84.22;103753.34;20936884;28;20304;-57
2023/01/25 06:26:59;;;;;;;;;;;;;;;1.28;84.76;103753.84;20938361;28;20387;-58
2023/01/25 06:37:21;;;;;;;;;;;;;;;1.32;83.70;103760.88;20941032;28;19978;-57
2023/01/25 06:47:43;;;;;;;;;;;;;;;1.19;83.25;103768.66;20931701;28;19924;-59
2023/01/25 06:58:04;;;;;;;;;;;;;;;1.19;84.03;103753.34;20935566;28;19978;-58
2023/01/25 07:08:26;;;;;;;;;;;;;;;1.10;83.66;103742.66;20932564;28;20028;-58
2023/01/25 07:18:48;;;;;;;;;;;;;;;1.03;84.88;103727.00;20928608;28;19975;-59
2023/01/25 07:29:14;;;;;;;;;;;;;;;1.01;85.05;103728.59;20915450;28;19928;-57
2023/01/25 07:39:35;;;;;;;;;;;;;;;0.98;84.65;103717.34;20915446;28;19924;-58
2023/01/25 07:49:56;;;;;;;;;;;;;;;0.95;85.16;103712.94;20931315;28;19925;-57
2023/01/25 08:00:18;;;;;;;;;;;;;;;1.08;84.60;103706.88;20910853;28;20073;-57
2023/01/25 08:10:39;;;;;;;;;;;;;;;1.07;85.11;103709.31;20930735;28;19933;-59
2023/01/25 08:21:02;;;;;;;;;;;;;;;0.92;84.87;103707.69;20928290;28;19994;-58
2023/01/25 08:31:28;;;;;;;;;;;;;;;1.00;85.75;103685.19;20924746;28;19982;-59
2023/01/25 08:41:50;;;;;;;;;;;;;;;0.96;85.04;103693.44;20964482;28;19932;-57
2023/01/25 08:52:13;;;;;;;;;;;;;;;0.96;84.89;103671.41;20956358;28;19932;-57
2023/01/25 09:02:35;;;;;;;;;;;;;;;0.83;84.03;103660.44;20943841;28;19924;-57
2023/01/25 09:12:56;;;;;;;;;;;;;;;0.80;84.90;103645.88;20938680;28;19978;-58
2023/01/25 09:23:21;;;;;;;;;;;;;;;0.77;84.95;103630.41;20938287;28;19929;-58
2023/01/25 09:33:43;;;;;;;;;;;;;;;0.84;84.96;103629.06;20940268;28;19925;-57
2023/01/25 09:44:07;;;;;;;;;;;;;;;0.88;84.74;103634.41;20926530;28;19924;-57
2023/01/25 09:54:38;;;;;;;;;;;;;;;0.91;85.10;103601.47;20944974;28;19950;-56
2023/01/25 10:05:12;;;;;;;;;;;;;;;0.90;85.31;103603.91;20935146;28;19928;-58
2023/01/25 10:15:38;;;;;;;;;;;;;;;0.87;84.86;103599.53;20949790;28;19928;-57
2023/01/25 10:26:03;;;;;;;;;;;;;;;0.91;84.63;103592.94;20936322;28;19925;-58
2023/01/25 10:36:28;;;;;;;;;;;;;;;0.85;85.33;103568.00;20948994;28;20288;-58
2023/01/25 10:47:02;;;;;;;;;;;;;;;0.91;84.22;103555.59;20925666;28;19928;-57
2023/01/25 10:57:23;;;;;;;;;;;;;;;0.75;84.22;103542.81;20932380;28;20268;-56
2023/01/25 11:07:45;;;;;;;;;;;;;;;0.80;84.27;103503.19;20937197;28;19970;-56
2023/01/25 11:18:12;;;;;;;;;;;;;;;0.72;83.84;103501.91;20943528;28;19975;-58
2023/01/25 11:28:33;;;;;;;;;;;;;;;0.66;84.19;103478.63;20918793;28;20526;-58
2023/01/25 11:39:09;;;;;;;;;;;;;;;0.65;84.34;103456.53;20936029;28;19951;-57
2023/01/25 11:49:47;;;;;;;;;;;;;;;0.78;84.54;103432.56;20933149;28;19924;-57
2023/01/25 12:00:24;;;;;;;;;;;;;;;0.64;84.49;103402.97;20939069;28;19929;-59
2023/01/25 12:11:04;;;;;;;;;;;;;;;0.65;83.74;103380.09;20937078;28;19924;-57
2023/01/25 12:21:52;;;;;;;;;;;;;;;0.69;84.12;103355.66;20929225;28;19937;-58
2023/01/25 12:32:27;;;;;;;;;;;;;;;0.80;83.46;103329.94;20926442;28;19928;-58
2023/01/25 12:42:55;;;;;;;;;;;;;;;0.75;83.82;103299.94;20930118;28;19940;-57
2023/01/25 12:53:19;;;;;;;;;;;;;;;0.62;84.28;103283.16;20951370;28;20003;-58
2023/01/25 13:03:53;;;;;;;;;;;;;;;0.57;84.10;103270.97;20936239;28;19928;-56
2023/01/25 13:14:14;;;;;;;;;;;;;;;0.60;83.45;103249.13;20932591;28;19928;-57
2023/01/25 13:24:54;;;;;;;;;;;;;;;0.67;83.87;103240.97;20936896;28;19924;-59
2023/01/25 13:35:35;;;;;;;;;;;;;;;0.60;84.03;103218.56;20948028;28;20363;-57
2023/01/25 13:45:56;;;;;;;;;;;;;;;0.51;84.08;103223.19;20927716;28;20336;-58
2023/01/25 13:56:31;;;;;;;;;;;;;;;0.45;84.61;103212.69;20937207;28;21194;-59
2023/01/25 14:07:00;;;;;;;;;;;;;;;0.64;85.69;103205.16;20948892;28;20300;-59
2023/01/25 14:17:22;;;;;;;;;;;;;;;0.60;84.91;103177.81;20936303;28;19928;-58
2023/01/25 14:27:58;;;;;;;;;;;;;;;0.57;84.85;103175.09;20930537;28;19929;-59
2023/01/25 14:38:23;;;;;;;;;;;;;;;0.72;84.33;103182.59;20948083;28;19924;-59
2023/01/25 14:48:44;;;;;;;;;;;;;;;0.75;84.21;103167.47;20953547;28;19924;-58
2023/01/25 14:59:06;;;;;;;;;;;;;;;0.60;84.44;103161.63;20933474;28;19924;-58
2023/01/25 15:09:30;;;;;;;;;;;;;;;0.61;85.82;103171.91;20938117;28;19929;-59
2023/01/25 15:19:52;;;;;;;;;;;;;;;0.59;85.56;103160.75;20944331;28;19925;-58
2023/01/25 15:30:14;;;;;;;;;;;;;;;0.56;85.62;103150.44;20929162;28;20276;-58
2023/01/25 15:40:35;;;;;;;;;;;;;;;0.50;85.71;103124.66;20941549;28;19987;-58
2023/01/25 15:50:57;;;;;;;;;;;;;;;0.60;86.11;103111.59;20938384;28;19929;-58
2023/01/25 16:01:18;;;;;;;;;;;;;;;0.52;86.07;103092.53;20923487;28;20379;-58
2023/01/25 16:11:40;;;;;;;;;;;;;;;0.60;85.91;103101.41;20944245;28;19931;-58
2023/01/25 16:22:01;;;;;;;;;;;;;;;0.55;85.08;103105.38;20943868;28;19970;-58
2023/01/25 16:32:23;;;;;;;;;;;;;;;0.48;86.26;103121.19;20942171;28;20323;-58
2023/01/25 16:42:44;;;;;;;;;;;;;;;0.52;85.96;103129.84;20932243;28;19924;-58
2023/01/25 16:53:05;;;;;;;;;;;;;;;0.54;85.95;103110.41;20937638;28;19928;-56
2023/01/25 17:03:27;;;;;;;;;;;;;;;0.51;87.21;103089.91;20953962;28;19932;-57
2023/01/25 17:13:53;;;;;;;;;;;;;;;0.48;87.47;103067.69;20933097;28;19925;-57
2023/01/25 17:24:16;;;;;;;;;;;;;;;0.45;87.72;103043.78;20956900;28;19929;-56
2023/01/25 17:34:38;;;;;;;;;;;;;;;0.44;88.83;103026.78;20947100;28;19928;-56
2023/01/25 17:44:59;;;;;;;;;;;;;;;0.38;89.47;103019.72;20950123;28;19986;-57
2023/01/25 17:55:21;;;;;;;;;;;;;;;0.32;89.16;102986.34;20931171;28;19928;-56
2023/01/25 18:05:44;;;;;;;;;;;;;;;0.41;91.29;102958.75;20937797;28;19950;-57
2023/01/25 18:16:05;;;;;;;;;;;;;;;0.41;89.38;102927.31;20934322;28;19924;-56
2023/01/25 18:26:28;;;;;;;;;;;;;;;0.43;91.10;102924.06;20946404;28;19956;-57
2023/01/25 18:36:51;;;;;;;;;;;;;;;0.34;89.32;102895.63;20934499;28;19986;-57
2023/01/25 18:47:17;;;;;;;;;;;;;;;0.27;89.54;102875.81;20945321;28;19933;-56
2023/01/25 18:57:38;;;;;;;;;;;;;;;0.28;89.38;102877.53;20940581;28;19932;-58
2023/01/25 19:08:00;;;;;;;;;;;;;;;0.16;89.51;102859.19;20932475;28;19929;-56
2023/01/25 19:18:21;;;;;;;;;;;;;;;0.28;90.44;102866.47;20932553;28;19925;-58
2023/01/25 19:28:43;;;;;;;;;;;;;;;0.42;89.73;102835.72;20931118;28;19924;-56
2023/01/25 19:39:08;;;;;;;;;;;;;;;0.34;90.09;102846.41;20943115;28;19978;-57
2023/01/25 19:49:30;;;;;;;;;;;;;;;0.33;90.52;102835.34;20929440;28;19928;-58
2023/01/25 19:59:52;;;;;;;;;;;;;;;0.34;89.21;102837.09;20932323;28;20380;-57
2023/01/25 20:10:13;;;;;;;;;;;;;;;0.39;90.12;102834.72;20941042;28;19924;-58
2023/01/25 20:20:34;;;;;;;;;;;;;;;0.38;90.32;102822.81;20935779;28;19991;-57
2023/01/25 20:30:58;;;;;;;;;;;;;;;0.36;90.87;102820.22;20930036;28;19932;-58
2023/01/25 20:41:19;;;;;;;;;;;;;;;0.37;91.27;102806.66;20952217;28;20333;-58
2023/01/25 20:51:44;;;;;;;;;;;;;;;0.29;91.26;102817.34;20955765;28;20006;-56
2023/01/25 21:02:05;;;;;;;;;;;;;;;0.31;91.73;102803.84;20946041;28;19929;-56
2023/01/25 21:12:30;;;;;;;;;;;;;;;0.33;91.91;102789.50;20941047;28;20299;-56
2023/01/25 21:22:51;;;;;;;;;;;;;;;0.28;92.05;102785.91;20944329;28;20391;-56
2023/01/25 21:33:13;;;;;;;;;;;;;;;0.23;91.78;102782.31;20931727;28;19928;-56
2023/01/25 21:54:18;;;;;;;;;;;;;;;0.20;91.20;102769.47;20945919;28;20324;-57
2023/01/25 22:04:40;;;;;;;;;;;;;;;0.21;91.68;102753.38;20943035;28;20334;-58
2023/01/25 22:15:01;;;;;;;;;;;;;;;0.16;91.63;102737.03;20939377;28;19989;-57
2023/01/25 22:25:23;;;;;;;;;;;;;;;0.22;91.67;102750.00;20936351;28;19929;-57
2023/01/25 22:35:44;;;;;;;;;;;;;;;0.22;91.74;102729.66;20944879;28;19924;-58
2023/01/25 22:46:06;;;;;;;;;;;;;;;0.19;91.97;102729.53;20934560;28;19928;-58
2023/01/25 22:56:30;;;;;;;;;;;;;;;0.16;91.86;102719.25;20922091;28;20384;-57
2023/01/25 23:07:11;;;;;;;;;;;;;;;0.16;93.07;102708.19;20934198;28;19929;-57
2023/01/25 23:28:12;;;;;;;;;;;;;;;0.24;94.28;102687.31;20939130;28;19928;-58
2023/01/25 23:38:34;;;;;;;;;;;;;;;0.33;94.54;102667.34;20930541;28;19928;-57
2023/01/25 23:48:55;;;;;;;;;;;;;;;0.39;94.10;102666.72;20940089;28;19928;-58
2023/01/25 23:59:17;;;;;;;;;;;;;;;0.44;94.11;102655.06;20936601;28;20536;-58
